Time;durP1;ratioP1;P1;durP2;ratioP2;P2;SDS_P1;SDS_P2;PMS_P1;PMS_P2;Temp;Humidity;BMP_temperature;BMP_pressure;BME280_temperature;BME280_humidity;BME280_pressure;Samples;Min_cycle;Max_cycle;Signal;HPM_P1;HPM_P2
2021/08/09 00:00:08;;;;;;;4.93;1.40;;;;;;;;;;5054043;28;20231;-52
2021/08/09 00:02:35;;;;;;;1.83;1.35;;;;;;;;;;5054020;28;20013;-52
2021/08/09 00:05:00;;;;;;;1.33;1.00;;;;;;;;;;5054680;28;20417;-52
2021/08/09 00:07:27;;;;;;;2.00;1.27;;;;;;;;;;5054435;28;20036;-52
2021/08/09 00:09:53;;;;;;;2.72;1.20;;;;;;;;;;5054544;28;20040;-52
2021/08/09 00:12:20;;;;;;;4.30;1.20;;;;;;;;;;5053144;28;20708;-52
2021/08/09 00:14:46;;;;;;;2.53;1.75;;;;;;;;;;5053825;28;20435;-52
2021/08/09 00:17:12;;;;;;;2.92;1.27;;;;;;;;;;5054314;28;20025;-52
2021/08/09 00:19:38;;;;;;;4.07;1.38;;;;;;;;;;5054140;28;20017;-52
2021/08/09 00:22:04;;;;;;;3.50;1.55;;;;;;;;;;5053199;28;20039;-52
2021/08/09 00:24:30;;;;;;;4.15;1.48;;;;;;;;;;5053660;28;20021;-52
2021/08/09 00:26:56;;;;;;;8.38;1.92;;;;;;;;;;5054190;28;20048;-52
2021/08/09 00:29:22;;;;;;;3.35;1.30;;;;;;;;;;5054181;28;20033;-52
2021/08/09 00:31:48;;;;;;;1.48;1.20;;;;;;;;;;5052759;28;20021;-52
2021/08/09 00:34:14;;;;;;;3.85;1.33;;;;;;;;;;5053958;28;20051;-52
2021/08/09 00:36:40;;;;;;;6.38;1.27;;;;;;;;;;5053720;28;20021;-52
2021/08/09 00:39:06;;;;;;;2.90;1.25;;;;;;;;;;5054002;28;20104;-52
2021/08/09 00:41:32;;;;;;;1.40;1.20;;;;;;;;;;5052418;28;20033;-53
2021/08/09 00:43:58;;;;;;;2.17;1.17;;;;;;;;;;5053511;28;20017;-52
2021/08/09 00:46:24;;;;;;;6.80;1.10;;;;;;;;;;5053530;28;20087;-52
2021/08/09 00:48:50;;;;;;;2.53;1.20;;;;;;;;;;5053305;28;20021;-52
2021/08/09 00:51:16;;;;;;;5.32;1.40;;;;;;;;;;5052815;28;20060;-52
2021/08/09 00:53:42;;;;;;;2.95;1.92;;;;;;;;;;5053625;28;20036;-52
2021/08/09 00:56:08;;;;;;;6.95;1.27;;;;;;;;;;5053426;28;20033;-52
2021/08/09 00:58:35;;;;;;;2.63;1.10;;;;;;;;;;5052610;28;20320;-52
2021/08/09 01:01:01;;;;;;;4.22;1.58;;;;;;;;;;5052834;28;20057;-52
2021/08/09 01:03:26;;;;;;;1.50;1.40;;;;;;;;;;5053371;28;20025;-52
2021/08/09 01:05:52;;;;;;;1.50;1.27;;;;;;;;;;5053431;28;20505;-52
2021/08/09 01:08:28;;;;;;;1.88;1.40;;;;;;;;;;5053266;28;20025;-52
2021/08/09 01:11:12;;;;;;;2.53;1.60;;;;;;;;;;5052301;28;20029;-52
2021/08/09 01:13:50;;;;;;;1.95;1.40;;;;;;;;;;5053352;28;20021;-52
2021/08/09 01:16:16;;;;;;;1.58;1.33;;;;;;;;;;5053367;28;20033;-52
2021/08/09 01:18:42;;;;;;;2.15;1.27;;;;;;;;;;5053029;28;20037;-53
2021/08/09 01:21:10;;;;;;;1.00;0.90;;;;;;;;;;5054972;28;20029;-52
2021/08/09 01:23:46;;;;;;;5.75;1.30;;;;;;;;;;5064686;28;20086;-52
2021/08/09 01:26:28;;;;;;;1.83;1.13;;;;;;;;;;5072829;28;20070;-52
2021/08/09 01:28:56;;;;;;;1.42;1.30;;;;;;;;;;5073333;28;20056;-52
2021/08/09 01:31:23;;;;;;;2.33;1.27;;;;;;;;;;5071976;28;20029;-52
2021/08/09 01:33:49;;;;;;;2.80;1.30;;;;;;;;;;5072511;28;20036;-52
2021/08/09 01:36:15;;;;;;;1.88;1.30;;;;;;;;;;5056792;28;20025;-52
2021/08/09 01:38:43;;;;;;;6.50;1.15;;;;;;;;;;5052790;28;20032;-52
2021/08/09 01:41:09;;;;;;;4.50;1.50;;;;;;;;;;5051955;28;20025;-52
2021/08/09 01:43:36;;;;;;;1.83;1.15;;;;;;;;;;5072443;28;20025;-52
2021/08/09 01:46:02;;;;;;;2.00;1.23;;;;;;;;;;5072410;28;20361;-52
2021/08/09 01:48:29;;;;;;;2.58;1.25;;;;;;;;;;5072300;28;20021;-52
2021/08/09 01:50:56;;;;;;;1.50;1.40;;;;;;;;;;5071984;28;20407;-52
2021/08/09 01:53:22;;;;;;;2.00;1.33;;;;;;;;;;5074905;28;20028;-52
2021/08/09 01:55:49;;;;;;;4.30;1.40;;;;;;;;;;5079652;28;20079;-52
2021/08/09 01:58:15;;;;;;;1.95;1.40;;;;;;;;;;5079017;28;20074;-52
2021/08/09 02:00:41;;;;;;;2.92;1.58;;;;;;;;;;5078602;28;20024;-52
2021/08/09 02:03:07;;;;;;;1.35;1.20;;;;;;;;;;5079377;28;20028;-51
2021/08/09 02:05:33;;;;;;;1.80;1.30;;;;;;;;;;5079170;28;20040;-52
2021/08/09 02:08:00;;;;;;;1.88;1.60;;;;;;;;;;5079506;28;20070;-53
2021/08/09 02:10:27;;;;;;;1.52;1.20;;;;;;;;;;5079171;28;20020;-52
2021/08/09 02:13:02;;;;;;;1.65;1.20;;;;;;;;;;5078180;28;20055;-52
2021/08/09 02:15:51;;;;;;;4.88;1.25;;;;;;;;;;5079221;28;20025;-52
2021/08/09 02:18:23;;;;;;;5.10;1.20;;;;;;;;;;5068697;28;20408;-52
2021/08/09 02:20:50;;;;;;;1.30;1.20;;;;;;;;;;5078486;28;20381;-52
2021/08/09 02:23:18;;;;;;;1.55;1.13;;;;;;;;;;5078889;28;20032;-52
2021/08/09 02:25:47;;;;;;;2.53;1.20;;;;;;;;;;5079086;28;20085;-52
2021/08/09 02:28:17;;;;;;;3.42;1.08;;;;;;;;;;5077440;28;20020;-52
2021/08/09 02:30:45;;;;;;;1.27;1.10;;;;;;;;;;5078157;28;20028;-52
2021/08/09 02:33:11;;;;;;;3.95;1.85;;;;;;;;;;5078561;28;20024;-52
2021/08/09 02:35:37;;;;;;;2.92;1.23;;;;;;;;;;5068051;28;20024;-51
2021/08/09 02:38:03;;;;;;;4.82;1.63;;;;;;;;;;5058931;28;20049;-52
2021/08/09 02:40:29;;;;;;;2.13;1.02;;;;;;;;;;5058998;28;20021;-52
2021/08/09 02:42:56;;;;;;;1.33;1.10;;;;;;;;;;5058047;28;20055;-52
2021/08/09 02:45:22;;;;;;;1.58;0.93;;;;;;;;;;5058421;28;20495;-52
2021/08/09 02:47:49;;;;;;;3.03;1.25;;;;;;;;;;5058715;28;20029;-52
2021/08/09 02:50:15;;;;;;;1.15;1.05;;;;;;;;;;5059148;28;20024;-52
2021/08/09 02:52:42;;;;;;;1.48;1.20;;;;;;;;;;5058187;28;20051;-52
2021/08/09 02:55:09;;;;;;;1.73;1.25;;;;;;;;;;5053436;28;20021;-52
2021/08/09 02:57:35;;;;;;;1.50;1.40;;;;;;;;;;5058382;28;20029;-52
2021/08/09 03:00:02;;;;;;;14.98;1.30;;;;;;;;;;5058394;28;20455;-52
2021/08/09 03:02:28;;;;;;;0.90;0.90;;;;;;;;;;5058019;28;20039;-52
2021/08/09 03:04:55;;;;;;;1.70;1.00;;;;;;;;;;5057274;28;20078;-52
2021/08/09 03:07:22;;;;;;;0.75;0.75;;;;;;;;;;5055728;28;20359;-52
2021/08/09 03:09:48;;;;;;;2.22;1.27;;;;;;;;;;5054835;28;20404;-52
2021/08/09 03:12:18;;;;;;;2.28;1.33;;;;;;;;;;5054870;28;20048;-52
2021/08/09 03:14:50;;;;;;;1.15;1.00;;;;;;;;;;5055329;28;20461;-52
2021/08/09 03:17:17;;;;;;;3.15;1.02;;;;;;;;;;5055354;28;20029;-52
2021/08/09 03:19:43;;;;;;;1.85;1.20;;;;;;;;;;5055434;28;20128;-52
2021/08/09 03:22:12;;;;;;;1.17;1.02;;;;;;;;;;5053979;28;20067;-52
2021/08/09 03:24:39;;;;;;;1.63;1.15;;;;;;;;;;5055048;28;20025;-52
2021/08/09 03:27:05;;;;;;;2.25;1.55;;;;;;;;;;5055488;28;20116;-52
2021/08/09 03:29:31;;;;;;;3.70;1.58;;;;;;;;;;5055020;28;20032;-52
2021/08/09 03:31:58;;;;;;;2.70;1.38;;;;;;;;;;5053992;28;20061;-52
2021/08/09 03:34:24;;;;;;;6.70;1.85;;;;;;;;;;5055182;28;20082;-52
2021/08/09 03:36:52;;;;;;;1.90;1.10;;;;;;;;;;5054960;28;20021;-52
2021/08/09 03:39:18;;;;;;;4.63;1.10;;;;;;;;;;5054567;28;20451;-52
2021/08/09 03:41:44;;;;;;;2.38;1.17;;;;;;;;;;5054200;28;20032;-52
2021/08/09 03:44:10;;;;;;;1.00;0.80;;;;;;;;;;5054993;28;20017;-52
2021/08/09 03:46:36;;;;;;;1.77;1.10;;;;;;;;;;5054706;28;20048;-52
2021/08/09 03:49:04;;;;;;;3.05;1.40;;;;;;;;;;5054477;28;20079;-52
2021/08/09 03:51:31;;;;;;;2.70;1.15;;;;;;;;;;5053483;28;20036;-52
2021/08/09 03:53:58;;;;;;;2.38;1.35;;;;;;;;;;5054793;28;20021;-52
2021/08/09 03:56:23;;;;;;;2.60;1.33;;;;;;;;;;5054523;28;20025;-53
2021/08/09 03:58:49;;;;;;;1.42;1.23;;;;;;;;;;5054779;28;20059;-52
2021/08/09 04:01:15;;;;;;;3.92;1.17;;;;;;;;;;5053997;28;20498;-52
2021/08/09 04:03:41;;;;;;;2.35;1.40;;;;;;;;;;5054203;28;20025;-52
2021/08/09 04:06:07;;;;;;;4.47;1.75;;;;;;;;;;5054101;28;20033;-53
2021/08/09 04:08:33;;;;;;;3.00;1.50;;;;;;;;;;5054630;28;20032;-52
2021/08/09 04:10:59;;;;;;;1.75;1.05;;;;;;;;;;5053515;28;20029;-52
2021/08/09 04:13:25;;;;;;;4.72;1.30;;;;;;;;;;5053705;28;20021;-52
2021/08/09 04:15:51;;;;;;;3.40;1.48;;;;;;;;;;5053693;28;20443;-52
2021/08/09 04:18:17;;;;;;;4.97;1.77;;;;;;;;;;5053763;28;20025;-52
2021/08/09 04:20:43;;;;;;;9.43;1.08;;;;;;;;;;5053343;28;20033;-52
2021/08/09 04:23:09;;;;;;;6.20;1.88;;;;;;;;;;5053830;28;20068;-52
2021/08/09 04:25:35;;;;;;;1.55;1.25;;;;;;;;;;5054193;28;20060;-52
2021/08/09 04:28:01;;;;;;;2.15;1.17;;;;;;;;;;5053961;28;20451;-52
2021/08/09 04:30:27;;;;;;;6.18;1.20;;;;;;;;;;5053590;28;20074;-52
2021/08/09 04:32:53;;;;;;;2.58;1.30;;;;;;;;;;5053651;28;20029;-52
2021/08/09 04:35:19;;;;;;;1.98;1.48;;;;;;;;;;5053916;28;20568;-52
2021/08/09 04:37:45;;;;;;;2.22;1.05;;;;;;;;;;5053663;28;20466;-52
2021/08/09 04:40:13;;;;;;;4.38;1.42;;;;;;;;;;5053793;28;20028;-52
2021/08/09 04:42:39;;;;;;;1.92;1.35;;;;;;;;;;5052931;28;20052;-52
2021/08/09 04:45:06;;;;;;;2.17;1.38;;;;;;;;;;5053434;28;20056;-52
2021/08/09 04:47:32;;;;;;;4.13;1.30;;;;;;;;;;5053575;28;20021;-52
2021/08/09 04:49:57;;;;;;;1.00;1.00;;;;;;;;;;5053490;28;20381;-52
2021/08/09 04:52:24;;;;;;;5.95;1.50;;;;;;;;;;5052642;28;20029;-52
2021/08/09 04:54:50;;;;;;;5.45;1.33;;;;;;;;;;5053720;28;20017;-52
2021/08/09 04:57:16;;;;;;;2.33;1.20;;;;;;;;;;5053153;28;20025;-56
2021/08/09 04:59:41;;;;;;;3.42;1.10;;;;;;;;;;5053843;28;20378;-52
2021/08/09 05:02:08;;;;;;;1.73;1.30;;;;;;;;;;5052103;28;20028;-52
2021/08/09 05:04:34;;;;;;;2.70;1.10;;;;;;;;;;5053561;28;20025;-52
2021/08/09 05:07:02;;;;;;;4.90;1.60;;;;;;;;;;5052624;28;20071;-53
2021/08/09 05:09:28;;;;;;;1.65;1.02;;;;;;;;;;5055459;28;20017;-52
2021/08/09 05:11:54;;;;;;;2.10;1.27;;;;;;;;;;5070273;28;20035;-52
2021/08/09 05:14:20;;;;;;;5.60;1.35;;;;;;;;;;5073524;28;20021;-52
2021/08/09 05:16:47;;;;;;;1.90;1.20;;;;;;;;;;5072552;28;20442;-52
2021/08/09 05:19:13;;;;;;;8.75;1.65;;;;;;;;;;5073102;28;20028;-52
2021/08/09 05:21:39;;;;;;;1.33;1.13;;;;;;;;;;5072369;28;20043;-52
2021/08/09 05:24:05;;;;;;;5.15;1.30;;;;;;;;;;5073174;28;20052;-52
2021/08/09 05:26:32;;;;;;;2.25;1.20;;;;;;;;;;5072805;28;20425;-52
2021/08/09 05:28:58;;;;;;;2.15;1.58;;;;;;;;;;5071978;28;20441;-53
2021/08/09 05:31:25;;;;;;;1.27;1.17;;;;;;;;;;5071941;28;20104;-53
2021/08/09 05:33:51;;;;;;;2.90;1.45;;;;;;;;;;5072939;28;20326;-52
2021/08/09 05:36:17;;;;;;;1.65;1.20;;;;;;;;;;5056703;28;20021;-53
2021/08/09 05:38:43;;;;;;;2.47;1.10;;;;;;;;;;5053021;28;20041;-52
2021/08/09 05:41:09;;;;;;;4.25;1.83;;;;;;;;;;5052055;28;20097;-53
2021/08/09 05:43:35;;;;;;;1.45;1.20;;;;;;;;;;5052819;28;20056;-52
2021/08/09 05:46:01;;;;;;;2.78;1.48;;;;;;;;;;5052229;28;20052;-53
2021/08/09 05:48:27;;;;;;;2.22;1.50;;;;;;;;;;5052542;28;20549;-53
2021/08/09 05:50:53;;;;;;;2.30;1.38;;;;;;;;;;5052085;28;20055;-53
2021/08/09 05:53:19;;;;;;;2.25;1.77;;;;;;;;;;5052534;28;20461;-53
2021/08/09 05:55:45;;;;;;;4.10;1.77;;;;;;;;;;5052190;28;20332;-53
2021/08/09 05:58:11;;;;;;;2.03;1.60;;;;;;;;;;5052556;28;20211;-53
2021/08/09 06:00:37;;;;;;;3.63;1.42;;;;;;;;;;5051591;28;20021;-53
2021/08/09 06:03:03;;;;;;;2.78;1.30;;;;;;;;;;5052316;28;20459;-53
2021/08/09 06:05:29;;;;;;;2.30;1.55;;;;;;;;;;5052449;28;20047;-53
2021/08/09 06:07:55;;;;;;;1.63;1.27;;;;;;;;;;5052797;28;20439;-53
2021/08/09 06:10:21;;;;;;;4.00;1.52;;;;;;;;;;5052565;28;20096;-53
2021/08/09 06:12:48;;;;;;;4.88;1.77;;;;;;;;;;5051507;28;20025;-53
2021/08/09 06:15:14;;;;;;;4.32;2.40;;;;;;;;;;5052087;28;20119;-53
2021/08/09 06:17:40;;;;;;;3.03;1.90;;;;;;;;;;5052487;28;20100;-53
2021/08/09 06:20:06;;;;;;;3.22;1.85;;;;;;;;;;5052322;28;20358;-53
2021/08/09 06:22:32;;;;;;;3.63;1.38;;;;;;;;;;5051314;28;20356;-53
2021/08/09 06:24:58;;;;;;;3.05;1.73;;;;;;;;;;5052295;28;20025;-53
2021/08/09 06:27:24;;;;;;;2.30;1.10;;;;;;;;;;5052332;28;20029;-53
2021/08/09 06:29:50;;;;;;;1.52;1.20;;;;;;;;;;5051959;28;20025;-53
2021/08/09 06:32:16;;;;;;;8.73;1.67;;;;;;;;;;5051569;28;20053;-53
2021/08/09 06:34:42;;;;;;;2.30;1.40;;;;;;;;;;5051913;28;20469;-53
2021/08/09 06:37:08;;;;;;;1.65;1.55;;;;;;;;;;5052654;28;20067;-53
2021/08/09 06:39:34;;;;;;;7.63;1.50;;;;;;;;;;5053250;28;20025;-53
2021/08/09 06:42:03;;;;;;;5.22;2.20;;;;;;;;;;5055021;28;20457;-53
2021/08/09 06:44:30;;;;;;;6.07;2.00;;;;;;;;;;5055765;28;20025;-53
2021/08/09 06:46:56;;;;;;;2.78;2.00;;;;;;;;;;5055926;28;20473;-53
2021/08/09 06:49:23;;;;;;;6.88;2.38;;;;;;;;;;5056043;28;20021;-53
2021/08/09 06:51:49;;;;;;;6.97;2.47;;;;;;;;;;5054900;28;20079;-53
2021/08/09 06:54:15;;;;;;;3.20;2.08;;;;;;;;;;5056137;28;20029;-54
2021/08/09 06:56:41;;;;;;;2.28;2.00;;;;;;;;;;5055394;28;20021;-53
2021/08/09 06:59:07;;;;;;;5.15;2.65;;;;;;;;;;5055848;28;20120;-53
2021/08/09 07:01:33;;;;;;;3.92;2.17;;;;;;;;;;5054676;28;20056;-53
2021/08/09 07:04:00;;;;;;;4.30;2.38;;;;;;;;;;5055665;28;20358;-53
2021/08/09 07:06:26;;;;;;;5.97;2.92;;;;;;;;;;5055542;28;20386;-53
2021/08/09 07:08:53;;;;;;;8.07;3.97;;;;;;;;;;5055338;28;20051;-53
2021/08/09 07:11:21;;;;;;;7.07;2.83;;;;;;;;;;5054511;28;20032;-54
2021/08/09 07:13:47;;;;;;;11.02;3.70;;;;;;;;;;5055721;28;20071;-53
2021/08/09 07:16:13;;;;;;;9.82;4.50;;;;;;;;;;5055330;28;20524;-53
2021/08/09 07:18:39;;;;;;;7.30;3.78;;;;;;;;;;5055186;28;20124;-53
2021/08/09 07:21:09;;;;;;;5.70;3.20;;;;;;;;;;5054660;28;20025;-53
2021/08/09 07:23:35;;;;;;;12.45;3.33;;;;;;;;;;5054945;28;20111;-53
2021/08/09 07:26:01;;;;;;;5.30;3.55;;;;;;;;;;5054850;28;20129;-53
2021/08/09 07:28:27;;;;;;;6.07;2.80;;;;;;;;;;5054969;28;20021;-53
2021/08/09 07:30:53;;;;;;;5.75;3.40;;;;;;;;;;5054295;28;20054;-53
2021/08/09 07:33:19;;;;;;;7.53;3.25;;;;;;;;;;5054860;28;20029;-53
2021/08/09 07:35:45;;;;;;;12.80;3.70;;;;;;;;;;5055037;28;20351;-53
2021/08/09 07:38:11;;;;;;;9.93;4.45;;;;;;;;;;5055048;28;20032;-53
2021/08/09 07:40:37;;;;;;;4.95;3.13;;;;;;;;;;5054006;28;20028;-53
2021/08/09 07:43:03;;;;;;;6.13;2.90;;;;;;;;;;5054324;28;20051;-53
2021/08/09 07:45:29;;;;;;;8.43;3.50;;;;;;;;;;5055133;28;20043;-53
2021/08/09 07:47:56;;;;;;;14.98;5.78;;;;;;;;;;5054875;28;20019;-53
2021/08/09 07:50:23;;;;;;;16.55;4.07;;;;;;;;;;5054533;28;20355;-53
2021/08/09 07:52:49;;;;;;;12.25;4.50;;;;;;;;;;5053315;28;20070;-53
2021/08/09 07:55:15;;;;;;;7.35;3.45;;;;;;;;;;5054388;28;20119;-52
2021/08/09 07:57:44;;;;;;;9.23;3.42;;;;;;;;;;5054379;28;20025;-53
2021/08/09 08:00:10;;;;;;;12.00;5.13;;;;;;;;;;5054593;28;20025;-52
2021/08/09 08:02:36;;;;;;;13.85;4.45;;;;;;;;;;5053648;28;20017;-53
2021/08/09 08:05:03;;;;;;;16.17;3.67;;;;;;;;;;5054539;28;20031;-53
2021/08/09 08:07:31;;;;;;;11.68;3.35;;;;;;;;;;5054494;28;20467;-53
2021/08/09 08:09:57;;;;;;;9.38;3.70;;;;;;;;;;5054111;28;20032;-53
2021/08/09 08:12:24;;;;;;;11.20;4.47;;;;;;;;;;5053311;28;20057;-53
2021/08/09 08:14:50;;;;;;;21.73;4.80;;;;;;;;;;5054419;28;20108;-53
2021/08/09 08:17:16;;;;;;;21.13;6.25;;;;;;;;;;5054605;28;20037;-53
2021/08/09 08:19:42;;;;;;;22.25;6.15;;;;;;;;;;5054212;28;20025;-53
2021/08/09 08:22:08;;;;;;;19.17;5.68;;;;;;;;;;5053385;28;20044;-53
2021/08/09 08:24:34;;;;;;;10.43;3.35;;;;;;;;;;5053932;28;20035;-53
2021/08/09 08:27:00;;;;;;;3.28;2.15;;;;;;;;;;5053189;28;20029;-53
2021/08/09 08:29:26;;;;;;;11.07;2.95;;;;;;;;;;5053462;28;20025;-53
2021/08/09 08:31:52;;;;;;;4.45;2.35;;;;;;;;;;5053509;28;20032;-53
2021/08/09 08:34:18;;;;;;;4.85;2.30;;;;;;;;;;5053878;28;20407;-53
2021/08/09 08:36:44;;;;;;;6.22;2.15;;;;;;;;;;5053953;28;20031;-53
2021/08/09 08:39:11;;;;;;;8.30;2.22;;;;;;;;;;5053755;28;20025;-53
2021/08/09 08:41:41;;;;;;;9.25;1.95;;;;;;;;;;5053153;28;20111;-53
2021/08/09 08:44:07;;;;;;;2.72;2.05;;;;;;;;;;5053664;28;20538;-53
2021/08/09 08:46:34;;;;;;;3.30;2.20;;;;;;;;;;5053677;28;20044;-53
2021/08/09 08:49:01;;;;;;;2.75;1.30;;;;;;;;;;5053743;28;20167;-53
2021/08/09 08:51:28;;;;;;;5.47;1.80;;;;;;;;;;5052874;28;20032;-53
2021/08/09 08:53:54;;;;;;;1.83;1.40;;;;;;;;;;5053990;28;20427;-53
2021/08/09 08:56:21;;;;;;;4.72;1.77;;;;;;;;;;5052821;28;20546;-53
2021/08/09 08:58:47;;;;;;;3.63;1.27;;;;;;;;;;5053682;28;20017;-53
2021/08/09 09:01:32;;;;;;;4.22;1.40;;;;;;;;;;5052747;28;20053;-53
2021/08/09 09:03:58;;;;;;;3.40;1.75;;;;;;;;;;5053278;28;20017;-53
2021/08/09 09:06:24;;;;;;;3.47;1.95;;;;;;;;;;5052812;28;20439;-53
2021/08/09 09:08:50;;;;;;;4.47;2.10;;;;;;;;;;5052449;28;20021;-53
2021/08/09 09:11:25;;;;;;;2.38;1.48;;;;;;;;;;5052694;28;20082;-53
2021/08/09 09:13:57;;;;;;;9.90;2.10;;;;;;;;;;5053402;28;20020;-53
2021/08/09 09:16:24;;;;;;;2.30;1.42;;;;;;;;;;5053046;28;20291;-53
2021/08/09 09:18:55;;;;;;;4.75;1.95;;;;;;;;;;5053484;28;20028;-53
2021/08/09 09:21:31;;;;;;;3.88;1.30;;;;;;;;;;5051715;28;20252;-54
2021/08/09 09:24:06;;;;;;;5.07;1.52;;;;;;;;;;5052992;28;20136;-54
2021/08/09 09:26:33;;;;;;;7.40;1.83;;;;;;;;;;5053164;28;20143;-54
2021/08/09 09:29:05;;;;;;;1.55;1.35;;;;;;;;;;5052876;28;20112;-53
2021/08/09 09:31:31;;;;;;;8.65;2.05;;;;;;;;;;5052054;28;20336;-53
2021/08/09 09:33:58;;;;;;;2.28;1.55;;;;;;;;;;5053029;28;20035;-53
2021/08/09 09:36:24;;;;;;;2.38;1.58;;;;;;;;;;5052528;28;20116;-53
2021/08/09 09:38:52;;;;;;;2.70;1.20;;;;;;;;;;5052847;28;20029;-53
2021/08/09 09:41:20;;;;;;;1.88;1.35;;;;;;;;;;5052309;28;20355;-53
2021/08/09 09:43:46;;;;;;;2.85;1.67;;;;;;;;;;5052535;28;20056;-53
2021/08/09 09:46:23;;;;;;;3.33;1.40;;;;;;;;;;5052643;28;20032;-53
2021/08/09 09:48:49;;;;;;;1.73;1.30;;;;;;;;;;5053023;28;20017;-53
2021/08/09 09:51:16;;;;;;;2.08;1.17;;;;;;;;;;5051535;28;20021;-54
2021/08/09 09:53:43;;;;;;;4.28;1.58;;;;;;;;;;5052886;28;20048;-54
2021/08/09 09:56:09;;;;;;;3.00;1.60;;;;;;;;;;5052676;28;20509;-53
2021/08/09 09:58:36;;;;;;;1.27;1.17;;;;;;;;;;5052611;28;20028;-53
2021/08/09 10:01:03;;;;;;;2.22;1.10;;;;;;;;;;5051792;28;20025;-53
2021/08/09 10:03:31;;;;;;;4.57;1.30;;;;;;;;;;5052607;28;20443;-53
2021/08/09 10:05:57;;;;;;;5.32;1.40;;;;;;;;;;5052213;28;20451;-53
2021/08/09 10:08:25;;;;;;;5.75;1.60;;;;;;;;;;5052840;28;20116;-54
2021/08/09 10:10:52;;;;;;;3.67;1.33;;;;;;;;;;5051708;28;20025;-53
2021/08/09 10:13:22;;;;;;;1.58;1.33;;;;;;;;;;5052265;28;20397;-53
2021/08/09 10:15:52;;;;;;;1.52;1.38;;;;;;;;;;5055365;28;20498;-53
2021/08/09 10:18:25;;;;;;;3.50;1.10;;;;;;;;;;5056940;28;20056;-53
2021/08/09 10:20:54;;;;;;;3.65;1.48;;;;;;;;;;5055827;28;20610;-53
2021/08/09 10:23:41;;;;;;;1.08;1.00;;;;;;;;;;5056457;28;20039;-53
2021/08/09 10:26:08;;;;;;;3.92;1.38;;;;;;;;;;5055685;28;20049;-53
2021/08/09 10:28:54;;;;;;;1.73;1.00;;;;;;;;;;5056703;28;20025;-53
2021/08/09 10:31:23;;;;;;;1.05;0.80;;;;;;;;;;5055230;28;20068;-53
2021/08/09 10:33:50;;;;;;;1.10;0.98;;;;;;;;;;5056294;28;20025;-53
2021/08/09 10:36:20;;;;;;;4.63;1.15;;;;;;;;;;5055975;28;20032;-53
2021/08/09 10:38:47;;;;;;;1.10;0.98;;;;;;;;;;5056022;28;20036;-53
2021/08/09 10:41:16;;;;;;;2.03;0.95;;;;;;;;;;5055576;28;20155;-53
2021/08/09 10:44:00;;;;;;;0.73;0.73;;;;;;;;;;5056125;28;20036;-53
2021/08/09 10:46:36;;;;;;;1.42;1.08;;;;;;;;;;5056214;28;20408;-53
2021/08/09 10:49:02;;;;;;;2.67;0.93;;;;;;;;;;5056128;28;20032;-53
2021/08/09 10:51:46;;;;;;;0.93;0.85;;;;;;;;;;5055015;28;20025;-53
2021/08/09 10:54:28;;;;;;;0.85;0.73;;;;;;;;;;5055504;28;20346;-54
2021/08/09 10:56:58;;;;;;;0.80;0.80;;;;;;;;;;5055816;28;20100;-53
2021/08/09 10:59:50;;;;;;;0.70;0.70;;;;;;;;;;5055846;28;20033;-53
2021/08/09 11:02:16;;;;;;;2.20;1.02;;;;;;;;;;5054390;28;20079;-53
2021/08/09 11:04:42;;;;;;;4.20;0.90;;;;;;;;;;5055890;28;20021;-53
2021/08/09 11:07:15;;;;;;;1.25;0.80;;;;;;;;;;5055650;28;20097;-53
2021/08/09 11:09:42;;;;;;;0.60;0.60;;;;;;;;;;5053986;28;20048;-53
2021/08/09 11:12:17;;;;;;;2.50;0.88;;;;;;;;;;5054456;28;20103;-53
2021/08/09 11:15:06;;;;;;;1.83;0.88;;;;;;;;;;5055631;28;20021;-53
2021/08/09 11:17:33;;;;;;;2.35;0.90;;;;;;;;;;5055426;28;20063;-53
2021/08/09 11:20:13;;;;;;;1.35;0.80;;;;;;;;;;5055096;28;20047;-53
2021/08/09 11:22:39;;;;;;;0.90;0.90;;;;;;;;;;5053810;28;20043;-53
2021/08/09 11:25:23;;;;;;;2.10;0.98;;;;;;;;;;5054942;28;20029;-54
2021/08/09 11:28:03;;;;;;;0.70;0.70;;;;;;;;;;5054692;28;20087;-53
2021/08/09 11:30:36;;;;;;;1.08;0.90;;;;;;;;;;5054620;28;20020;-53
2021/08/09 11:33:02;;;;;;;1.08;0.80;;;;;;;;;;5055278;28;20082;-53
2021/08/09 11:35:28;;;;;;;2.63;1.05;;;;;;;;;;5055009;28;20029;-53
2021/08/09 11:37:54;;;;;;;2.50;1.13;;;;;;;;;;5055035;28;20393;-53
2021/08/09 11:40:50;;;;;;;1.15;1.00;;;;;;;;;;5054809;28;20047;-53
2021/08/09 11:43:25;;;;;;;0.80;0.80;;;;;;;;;;5053219;28;20459;-53
2021/08/09 11:45:52;;;;;;;0.95;0.80;;;;;;;;;;5054854;28;20033;-53
2021/08/09 11:48:25;;;;;;;1.67;1.00;;;;;;;;;;5054787;28;20514;-53
2021/08/09 11:50:54;;;;;;;6.00;0.93;;;;;;;;;;5054162;28;20032;-53
2021/08/09 11:53:20;;;;;;;4.30;0.80;;;;;;;;;;5054397;28;20025;-53
2021/08/09 11:55:46;;;;;;;5.72;1.00;;;;;;;;;;5054733;28;20051;-53
2021/08/09 11:58:27;;;;;;;0.60;0.60;;;;;;;;;;5054612;28;20021;-53
2021/08/09 12:00:53;;;;;;;1.85;0.90;;;;;;;;;;5053774;28;20043;-53
2021/08/09 12:03:21;;;;;;;3.85;1.10;;;;;;;;;;5054363;28;20033;-53
2021/08/09 12:05:48;;;;;;;1.65;1.15;;;;;;;;;;5054453;28;20421;-53
2021/08/09 12:08:14;;;;;;;3.60;1.20;;;;;;;;;;5054681;28;20025;-53
2021/08/09 12:10:40;;;;;;;0.77;0.70;;;;;;;;;;5053571;28;20055;-53
2021/08/09 12:13:22;;;;;;;2.08;0.80;;;;;;;;;;5054512;28;20021;-53
2021/08/09 12:16:07;;;;;;;7.55;0.85;;;;;;;;;;5054222;28;20411;-53
2021/08/09 12:18:33;;;;;;;0.80;0.80;;;;;;;;;;5054299;28;20025;-53
2021/08/09 12:21:12;;;;;;;1.92;1.30;;;;;;;;;;5053263;28;20027;-54
2021/08/09 12:23:51;;;;;;;2.78;1.23;;;;;;;;;;5054057;28;20021;-53
2021/08/09 12:26:24;;;;;;;0.90;0.77;;;;;;;;;;5054053;28;20417;-53
2021/08/09 12:28:51;;;;;;;2.08;1.00;;;;;;;;;;5053901;28;20055;-53
2021/08/09 12:31:29;;;;;;;1.95;1.02;;;;;;;;;;5053433;28;20055;-53
2021/08/09 12:34:05;;;;;;;0.80;0.80;;;;;;;;;;5053687;28;20336;-53
2021/08/09 12:36:32;;;;;;;1.00;0.90;;;;;;;;;;5054160;28;20095;-54
2021/08/09 12:38:58;;;;;;;5.00;1.10;;;;;;;;;;5053323;28;20347;-53
2021/08/09 12:41:25;;;;;;;1.13;1.00;;;;;;;;;;5052628;28;20029;-53
2021/08/09 12:43:51;;;;;;;1.23;1.10;;;;;;;;;;5053122;28;20115;-53
2021/08/09 12:46:17;;;;;;;2.10;1.02;;;;;;;;;;5053570;28;20125;-53
2021/08/09 12:48:50;;;;;;;1.00;0.90;;;;;;;;;;5053561;28;20036;-53
2021/08/09 12:51:16;;;;;;;2.35;1.15;;;;;;;;;;5052627;28;20394;-53
2021/08/09 12:53:42;;;;;;;3.65;1.13;;;;;;;;;;5052968;28;20033;-53
2021/08/09 12:56:08;;;;;;;2.30;0.90;;;;;;;;;;5053672;28;20040;-53
2021/08/09 12:58:36;;;;;;;0.95;0.80;;;;;;;;;;5052189;28;20029;-53
2021/08/09 13:01:02;;;;;;;2.67;1.10;;;;;;;;;;5052678;28;20040;-53
2021/08/09 13:03:28;;;;;;;1.17;0.80;;;;;;;;;;5053399;28;20017;-53
2021/08/09 13:05:54;;;;;;;5.05;0.90;;;;;;;;;;5053430;28;20043;-53
2021/08/09 13:08:21;;;;;;;2.25;1.10;;;;;;;;;;5052941;28;20021;-53
2021/08/09 13:10:47;;;;;;;1.83;1.05;;;;;;;;;;5052389;28;20505;-53
2021/08/09 13:13:13;;;;;;;1.42;1.10;;;;;;;;;;5053152;28;20060;-53
2021/08/09 13:15:39;;;;;;;1.85;0.80;;;;;;;;;;5053431;28;20025;-53
2021/08/09 13:18:05;;;;;;;4.00;0.93;;;;;;;;;;5052990;28;20025;-53
2021/08/09 13:20:31;;;;;;;1.73;1.15;;;;;;;;;;5053160;28;20021;-53
2021/08/09 13:22:57;;;;;;;2.63;1.00;;;;;;;;;;5052240;28;20174;-53
2021/08/09 13:25:23;;;;;;;1.30;1.10;;;;;;;;;;5053200;28;20117;-54
2021/08/09 13:27:51;;;;;;;0.75;0.75;;;;;;;;;;5052772;28;20110;-53
2021/08/09 13:30:17;;;;;;;1.50;1.17;;;;;;;;;;5052925;28;20098;-53
2021/08/09 13:32:43;;;;;;;1.02;0.82;;;;;;;;;;5052292;28;20112;-53
2021/08/09 13:35:09;;;;;;;0.82;0.77;;;;;;;;;;5052760;28;20112;-53
2021/08/09 13:37:35;;;;;;;1.65;1.55;;;;;;;;;;5052955;28;20025;-53
2021/08/09 13:40:02;;;;;;;1.80;1.00;;;;;;;;;;5052976;28;20434;-54
2021/08/09 13:42:28;;;;;;;0.90;0.90;;;;;;;;;;5052102;28;20040;-53
2021/08/09 13:44:54;;;;;;;1.40;0.88;;;;;;;;;;5052997;28;20036;-53
2021/08/09 13:47:20;;;;;;;1.08;0.85;;;;;;;;;;5052284;28;20083;-53
2021/08/09 13:49:46;;;;;;;0.88;0.88;;;;;;;;;;5052183;28;20025;-53
2021/08/09 13:52:12;;;;;;;1.30;1.10;;;;;;;;;;5051859;28;20166;-53
2021/08/09 13:54:39;;;;;;;1.60;1.33;;;;;;;;;;5052640;28;20021;-53
2021/08/09 13:57:05;;;;;;;2.00;1.20;;;;;;;;;;5052857;28;20032;-54
2021/08/09 13:59:31;;;;;;;3.55;1.50;;;;;;;;;;5052420;28;20442;-54
2021/08/09 14:01:57;;;;;;;1.10;1.00;;;;;;;;;;5051961;28;20017;-53
2021/08/09 14:04:23;;;;;;;1.05;0.95;;;;;;;;;;5052826;28;20104;-53
2021/08/09 14:06:49;;;;;;;1.20;0.98;;;;;;;;;;5052124;28;20124;-53
2021/08/09 14:09:15;;;;;;;1.63;1.00;;;;;;;;;;5052660;28;20044;-53
2021/08/09 14:11:41;;;;;;;1.23;0.90;;;;;;;;;;5051751;28;20064;-53
2021/08/09 14:14:07;;;;;;;2.00;1.20;;;;;;;;;;5052064;28;20021;-53
2021/08/09 14:16:33;;;;;;;3.30;1.35;;;;;;;;;;5052863;28;20406;-53
2021/08/09 14:18:59;;;;;;;2.15;1.08;;;;;;;;;;5052342;28;20017;-54
2021/08/09 14:21:25;;;;;;;1.98;1.35;;;;;;;;;;5051528;28;20025;-53
2021/08/09 14:23:51;;;;;;;2.88;1.30;;;;;;;;;;5052343;28;20025;-53
2021/08/09 14:26:17;;;;;;;2.58;1.00;;;;;;;;;;5052741;28;20029;-54
2021/08/09 14:28:43;;;;;;;0.93;0.90;;;;;;;;;;5050826;28;20017;-53
2021/08/09 14:31:09;;;;;;;2.10;1.13;;;;;;;;;;5051507;28;20434;-53
2021/08/09 14:33:37;;;;;;;2.42;1.23;;;;;;;;;;5052154;28;20071;-53
2021/08/09 14:36:03;;;;;;;1.63;1.25;;;;;;;;;;5052264;28;20029;-53
2021/08/09 14:38:30;;;;;;;3.58;1.55;;;;;;;;;;5052496;28;20032;-53
2021/08/09 14:40:56;;;;;;;4.05;1.10;;;;;;;;;;5051794;28;20029;-53
2021/08/09 14:43:22;;;;;;;1.17;1.08;;;;;;;;;;5051506;28;20036;-53
2021/08/09 14:45:48;;;;;;;4.60;1.38;;;;;;;;;;5052302;28;20037;-53